createdAt,value
2022-09-14T00:00:26.160Z,3.72
2022-09-14T00:02:56.378Z,3.92
2022-09-14T00:05:25.346Z,4.50
2022-09-14T00:07:58.694Z,5.57
2022-09-14T00:10:28.896Z,4.53
2022-09-14T00:12:58.379Z,5.10
2022-09-14T00:15:27.571Z,3.92
2022-09-14T00:17:58.564Z,8.57
2022-09-14T00:20:29.094Z,4.72
2022-09-14T00:22:59.675Z,3.22
2022-09-14T00:25:29.055Z,4.80
2022-09-14T00:27:59.681Z,5.10
2022-09-14T00:30:29.328Z,3.90
2022-09-14T00:32:58.823Z,4.78
2022-09-14T00:35:28.463Z,3.92
2022-09-14T00:37:58.968Z,3.72
2022-09-14T00:40:30.709Z,5.65
2022-09-14T00:42:59.729Z,3.70
2022-09-14T00:45:29.534Z,4.55
2022-09-14T00:47:58.702Z,3.83
2022-09-14T00:50:29.319Z,4.00
2022-09-14T00:52:59.853Z,4.07
2022-09-14T00:55:29.313Z,4.43
2022-09-14T00:57:58.616Z,5.80
2022-09-14T01:00:31.116Z,5.20
2022-09-14T01:03:01.338Z,4.28
2022-09-14T01:05:46.515Z,5.30
2022-09-14T01:08:37.030Z,4.53
2022-09-14T01:11:22.641Z,5.20
2022-09-14T01:14:00.628Z,4.40
2022-09-14T01:16:36.138Z,4.40
2022-09-14T01:19:11.927Z,4.70
2022-09-14T01:21:43.842Z,5.82
2022-09-14T01:24:26.979Z,5.32
2022-09-14T01:27:21.931Z,4.53
2022-09-14T01:29:59.380Z,6.30
2022-09-14T01:32:32.842Z,5.18
2022-09-14T01:35:12.091Z,4.80
2022-09-14T01:37:47.321Z,5.18
2022-09-14T01:40:22.150Z,6.03
2022-09-14T01:43:00.630Z,6.47
2022-09-14T01:45:33.310Z,4.93
2022-09-14T01:50:40.149Z,6.30
2022-09-14T01:53:12.917Z,5.85
2022-09-14T01:55:46.141Z,5.32
2022-09-14T01:58:25.894Z,8.80
2022-09-14T02:00:59.236Z,7.35
2022-09-14T02:03:35.668Z,6.45
2022-09-14T02:06:10.535Z,7.85
2022-09-14T02:08:40.634Z,5.75
2022-09-14T02:11:10.378Z,7.25
2022-09-14T02:13:42.063Z,6.50
2022-09-14T02:16:12.079Z,5.72
2022-09-14T02:18:43.656Z,6.10
2022-09-14T02:23:44.205Z,6.88
2022-09-14T02:26:14.234Z,7.60
2022-09-14T02:28:47.267Z,8.20
2022-09-14T02:31:28.305Z,7.38
2022-09-14T02:34:07.727Z,6.50
2022-09-14T02:36:47.982Z,6.85
2022-09-14T02:39:27.389Z,8.57
2022-09-14T02:42:06.515Z,7.28
2022-09-14T02:44:45.214Z,8.50
2022-09-14T02:47:22.648Z,6.85
2022-09-14T02:50:03.559Z,7.18
2022-09-14T02:52:36.982Z,9.32
2022-09-14T02:55:11.221Z,7.50
2022-09-14T02:58:03.419Z,8.23
2022-09-14T03:00:37.460Z,8.02
2022-09-14T03:03:08.026Z,8.70
2022-09-14T03:05:37.519Z,8.93
2022-09-14T03:08:08.561Z,9.57
2022-09-14T03:10:38.536Z,8.55
2022-09-14T03:13:07.569Z,9.95
2022-09-14T03:15:38.477Z,9.23
2022-09-14T03:18:13.641Z,13.40
2022-09-14T03:20:44.294Z,8.93
2022-09-14T03:23:14.801Z,7.95
2022-09-14T03:25:45.439Z,6.67
2022-09-14T03:28:16.056Z,11.18
2022-09-14T03:30:46.822Z,10.75
2022-09-14T03:33:16.904Z,9.65
2022-09-14T03:35:46.145Z,9.95
2022-09-14T03:38:16.210Z,10.90
2022-09-14T03:40:49.638Z,9.98
2022-09-14T03:43:18.928Z,11.20
2022-09-14T03:45:49.691Z,10.70
2022-09-14T03:48:20.028Z,11.77
2022-09-14T03:50:49.946Z,9.55
2022-09-14T03:53:19.855Z,10.20
2022-09-14T03:55:49.336Z,10.27
2022-09-14T03:58:19.712Z,11.32
2022-09-14T04:00:50.939Z,12.70
2022-09-14T04:03:21.355Z,12.45
2022-09-14T04:05:57.860Z,13.02
2022-09-14T04:08:28.301Z,13.32
2022-09-14T04:10:57.604Z,11.75
2022-09-14T04:13:29.741Z,11.93
2022-09-14T04:16:01.883Z,11.85
2022-09-14T04:18:32.158Z,11.48
2022-09-14T04:21:07.793Z,14.02
2022-09-14T04:24:03.057Z,12.23
2022-09-14T04:26:30.870Z,17.23
2022-09-14T04:29:00.499Z,12.70
2022-09-14T04:31:35.042Z,12.10
2022-09-14T04:34:06.303Z,12.68
2022-09-14T04:36:36.076Z,12.55
2022-09-14T04:39:08.079Z,12.70
2022-09-14T04:41:38.019Z,12.20
2022-09-14T04:44:08.989Z,12.13
2022-09-14T04:46:46.869Z,8.57
2022-09-14T04:49:18.994Z,8.85
2022-09-14T04:51:51.135Z,9.00
2022-09-14T04:54:26.041Z,9.45
2022-09-14T04:56:56.624Z,7.10
2022-09-14T04:59:27.881Z,8.07
2022-09-14T05:01:59.237Z,8.52
2022-09-14T05:04:31.118Z,7.45
2022-09-14T05:07:03.412Z,8.25
2022-09-14T05:09:32.976Z,7.50
2022-09-14T05:12:02.830Z,6.25
2022-09-14T05:14:33.577Z,8.32
2022-09-14T05:17:06.162Z,9.27
2022-09-14T05:19:40.605Z,8.48
2022-09-14T05:22:11.405Z,9.57
2022-09-14T05:24:43.074Z,10.00
2022-09-14T05:27:14.540Z,9.32
2022-09-14T05:32:19.341Z,11.27
2022-09-14T05:34:50.442Z,10.68
2022-09-14T05:37:20.947Z,11.38
2022-09-14T05:39:51.291Z,12.95
2022-09-14T05:42:20.999Z,13.18
2022-09-14T05:44:54.333Z,12.95
2022-09-14T05:47:34.817Z,14.70
2022-09-14T05:50:09.207Z,13.15
2022-09-14T05:52:39.915Z,12.45
2022-09-14T05:55:11.575Z,18.60
2022-09-14T05:57:42.982Z,14.95
2022-09-14T06:00:15.188Z,13.25
2022-09-14T06:02:52.749Z,10.52
2022-09-14T06:05:26.261Z,11.40
2022-09-14T06:07:56.915Z,12.38
2022-09-14T06:10:27.545Z,12.02
2022-09-14T06:13:00.725Z,10.27
2022-09-14T06:15:31.117Z,10.30
2022-09-14T06:18:04.423Z,9.68
2022-09-14T06:20:35.020Z,9.57
2022-09-14T06:23:06.519Z,10.00
2022-09-14T06:25:37.576Z,9.15
2022-09-14T06:28:06.991Z,12.23
2022-09-14T06:30:39.088Z,8.43
2022-09-14T06:33:14.183Z,8.90
2022-09-14T06:35:46.567Z,8.45
2022-09-14T06:38:17.857Z,10.90
2022-09-14T06:40:53.774Z,6.78
2022-09-14T06:43:25.341Z,7.15
2022-09-14T06:46:00.705Z,6.60
2022-09-14T06:48:34.665Z,7.22
2022-09-14T06:51:18.825Z,6.85
2022-09-14T06:53:49.441Z,9.55
2022-09-14T06:56:21.915Z,6.27
2022-09-14T06:58:53.437Z,7.78
2022-09-14T07:03:58.377Z,5.82
2022-09-14T07:06:29.962Z,9.73
2022-09-14T07:11:33.522Z,4.93
2022-09-14T07:14:03.549Z,5.20
2022-09-14T07:16:36.927Z,7.13
2022-09-14T07:19:16.905Z,3.95
2022-09-14T07:21:48.749Z,5.35
2022-09-14T07:24:20.692Z,4.90
2022-09-14T07:26:52.149Z,7.18
2022-09-14T07:29:25.773Z,5.40
2022-09-14T07:32:01.518Z,6.43
2022-09-14T07:34:35.114Z,6.30
2022-09-14T07:37:06.124Z,6.30
2022-09-14T07:39:36.851Z,6.25
2022-09-14T07:42:08.462Z,7.57
2022-09-14T07:44:39.656Z,6.68
2022-09-14T07:47:10.702Z,6.90
2022-09-14T07:52:17.323Z,8.05
2022-09-14T07:54:47.288Z,7.55
2022-09-14T07:57:18.225Z,6.53
2022-09-14T07:59:49.255Z,6.18
2022-09-14T08:02:19.999Z,10.20
2022-09-14T08:04:53.274Z,9.45
2022-09-14T08:07:23.653Z,10.23
2022-09-14T08:09:56.724Z,10.55
2022-09-14T08:12:27.265Z,10.40
2022-09-14T08:14:57.224Z,8.30
2022-09-14T08:17:31.421Z,8.35
2022-09-14T08:20:12.261Z,7.95
2022-09-14T08:22:43.799Z,8.43
2022-09-14T08:25:14.955Z,10.00
2022-09-14T08:27:51.457Z,9.73
2022-09-14T08:30:21.601Z,9.50
2022-09-14T08:32:52.222Z,11.70
2022-09-14T08:35:46.866Z,8.70
2022-09-14T08:38:17.029Z,9.88
2022-09-14T08:40:48.430Z,9.55
2022-09-14T08:43:19.384Z,9.57
2022-09-14T08:45:52.300Z,9.73
2022-09-14T08:48:27.894Z,7.88
2022-09-14T08:51:00.903Z,8.65
2022-09-14T08:53:32.513Z,11.23
2022-09-14T08:56:08.593Z,9.10
2022-09-14T08:58:54.314Z,10.50
2022-09-14T09:01:33.832Z,7.75
2022-09-14T09:04:26.924Z,10.02
2022-09-14T09:07:11.430Z,8.00
2022-09-14T09:09:47.349Z,5.95
2022-09-14T09:12:21.195Z,6.88
2022-09-14T09:14:56.331Z,6.32
2022-09-14T09:17:33.179Z,7.63
2022-09-14T09:20:09.997Z,5.53
2022-09-14T09:22:50.161Z,9.27
2022-09-14T09:25:27.344Z,7.28
2022-09-14T09:27:59.529Z,6.90
2022-09-14T09:30:31.290Z,8.68
2022-09-14T09:33:05.513Z,9.63
2022-09-14T09:35:54.630Z,7.85
2022-09-14T09:38:32.466Z,6.03
2022-09-14T09:41:14.539Z,8.10
2022-09-14T09:47:05.994Z,7.72
2022-09-14T09:49:41.337Z,7.13
2022-09-14T09:52:19.860Z,6.38
2022-09-14T09:54:59.110Z,4.50
2022-09-14T09:58:28.713Z,6.25
2022-09-14T10:01:01.953Z,5.72
2022-09-14T10:03:36.264Z,6.13
2022-09-14T10:06:10.364Z,5.35
2022-09-14T10:08:47.053Z,7.70
2022-09-14T10:11:42.071Z,5.85
2022-09-14T10:14:26.464Z,5.03
2022-09-14T10:17:06.411Z,6.45
2022-09-14T10:19:39.406Z,7.60
2022-09-14T10:22:28.228Z,4.88
2022-09-14T10:25:01.070Z,6.13
2022-09-14T10:28:14.485Z,7.35
2022-09-14T10:30:49.450Z,5.70
2022-09-14T10:33:20.872Z,6.65
2022-09-14T10:36:02.349Z,6.55
2022-09-14T10:38:53.213Z,6.43
2022-09-14T10:41:35.639Z,6.22
2022-09-14T10:44:31.470Z,5.95
2022-09-14T10:47:24.479Z,7.75
2022-09-14T10:50:16.210Z,10.00
2022-09-14T10:52:58.185Z,5.65
2022-09-14T10:55:40.246Z,5.97
2022-09-14T10:58:24.599Z,6.32
2022-09-14T11:01:10.733Z,6.65
2022-09-14T11:03:56.264Z,6.18
2022-09-14T11:06:47.662Z,6.43
2022-09-14T11:09:27.952Z,5.53
2022-09-14T11:12:08.167Z,8.05
2022-09-14T11:17:50.218Z,5.80
2022-09-14T11:20:43.546Z,4.97
2022-09-14T11:23:30.270Z,4.32
2022-09-14T11:26:20.190Z,4.35
2022-09-14T11:28:58.588Z,6.32
2022-09-14T11:31:37.616Z,8.40
2022-09-14T11:34:17.603Z,8.13
2022-09-14T11:36:54.865Z,7.55
2022-09-14T11:39:43.200Z,7.22
2022-09-14T11:42:23.693Z,6.82
2022-09-14T11:45:04.579Z,7.72
2022-09-14T11:47:46.679Z,12.68
2022-09-14T11:50:26.914Z,5.75
2022-09-14T11:53:17.650Z,6.28
2022-09-14T11:55:51.582Z,6.38
2022-09-14T11:58:27.755Z,8.70
2022-09-14T12:01:08.877Z,9.95
2022-09-14T12:04:29.451Z,5.80
2022-09-14T12:07:15.081Z,6.22
2022-09-14T12:10:22.644Z,5.70
2022-09-14T12:13:02.113Z,6.25
2022-09-14T12:15:42.958Z,5.25
2022-09-14T12:18:27.198Z,5.45
2022-09-14T12:21:23.342Z,5.72
2022-09-14T12:24:00.810Z,7.00
2022-09-14T12:26:51.383Z,7.80
2022-09-14T12:29:39.035Z,6.40
2022-09-14T12:32:34.496Z,5.95
2022-09-14T12:35:48.875Z,7.45
2022-09-14T12:39:08.568Z,7.28
2022-09-14T12:42:44.666Z,7.27
2022-09-14T12:46:02.495Z,6.13
2022-09-14T12:49:00.668Z,7.57
2022-09-14T12:51:46.503Z,7.50
2022-09-14T12:54:26.431Z,7.75
2022-09-14T12:57:28.301Z,5.15
2022-09-14T13:00:06.593Z,5.93
2022-09-14T13:03:15.808Z,6.63
2022-09-14T13:06:18.132Z,12.80
2022-09-14T13:09:27.955Z,6.30
2022-09-14T13:12:04.199Z,8.30
2022-09-14T13:15:02.070Z,5.82
2022-09-14T13:17:38.152Z,5.97
2022-09-14T13:20:20.982Z,7.00
2022-09-14T13:22:56.516Z,5.97
2022-09-14T13:25:34.536Z,7.22
2022-09-14T13:28:22.703Z,5.45
2022-09-14T13:30:59.585Z,6.82
2022-09-14T13:33:30.611Z,7.85
2022-09-14T13:36:03.370Z,6.00
2022-09-14T13:38:40.563Z,7.40
2022-09-14T13:41:18.779Z,6.97
2022-09-14T13:44:00.513Z,4.97
2022-09-14T13:46:47.780Z,8.45
2022-09-14T13:49:20.630Z,6.65
2022-09-14T13:51:51.006Z,9.13
2022-09-14T13:54:34.279Z,6.97
2022-09-14T13:57:14.330Z,9.38
2022-09-14T14:00:18.352Z,5.82
2022-09-14T14:02:53.193Z,6.70
2022-09-14T14:05:25.927Z,8.82
2022-09-14T14:08:19.555Z,8.20
2022-09-14T14:10:52.296Z,6.47
2022-09-14T14:13:28.385Z,9.77
2022-09-14T14:16:33.633Z,11.63
2022-09-14T14:19:07.411Z,7.25
2022-09-14T14:21:39.426Z,7.68
2022-09-14T14:24:49.796Z,7.38
2022-09-14T14:27:44.979Z,7.55
2022-09-14T14:30:18.336Z,7.55
2022-09-14T14:32:56.711Z,9.55
2022-09-14T14:35:30.391Z,10.65
2022-09-14T14:38:02.074Z,7.55
2022-09-14T14:40:35.410Z,8.90
2022-09-14T14:43:10.851Z,8.55
2022-09-14T14:45:42.470Z,12.52
2022-09-14T14:51:25.536Z,9.43
2022-09-14T14:54:04.866Z,9.63
2022-09-14T14:56:41.026Z,10.27
2022-09-14T14:59:29.687Z,12.02
2022-09-14T15:02:20.326Z,11.07
2022-09-14T15:04:55.963Z,9.43
2022-09-14T15:07:29.970Z,8.35
2022-09-14T15:10:01.159Z,12.73
2022-09-14T15:12:38.295Z,7.20
2022-09-14T15:15:15.286Z,7.50
2022-09-14T15:17:56.772Z,9.80
2022-09-14T15:20:27.280Z,12.77
2022-09-14T15:23:02.954Z,12.03
2022-09-14T15:25:33.590Z,7.95
2022-09-14T15:28:08.845Z,9.80
2022-09-14T15:30:48.587Z,8.18
2022-09-14T15:33:27.245Z,9.93
2022-09-14T15:36:02.800Z,8.30
2022-09-14T15:38:41.082Z,12.18
2022-09-14T15:41:16.331Z,10.77
2022-09-14T15:43:52.580Z,9.38
2022-09-14T15:46:27.397Z,11.07
2022-09-14T15:48:59.693Z,10.80
2022-09-14T15:51:43.409Z,8.50
2022-09-14T15:54:25.946Z,9.18
2022-09-14T15:57:02.417Z,6.80
2022-09-14T15:59:56.607Z,16.85
2022-09-14T16:02:27.343Z,10.70
2022-09-14T16:04:58.869Z,9.93
2022-09-14T16:08:14.941Z,9.52
2022-09-14T16:10:58.925Z,12.90
2022-09-14T16:13:32.144Z,11.27
2022-09-14T16:16:14.129Z,12.02
2022-09-14T16:18:54.926Z,10.82
2022-09-14T16:21:29.109Z,11.75
2022-09-14T16:24:02.394Z,13.93
2022-09-14T16:26:46.262Z,13.13
2022-09-14T16:29:18.854Z,18.27
2022-09-14T16:31:58.025Z,11.20
2022-09-14T16:34:41.508Z,12.10
2022-09-14T16:37:22.951Z,11.85
2022-09-14T16:39:55.180Z,15.60
2022-09-14T16:42:33.353Z,16.40
2022-09-14T16:45:04.375Z,17.88
2022-09-14T16:47:36.515Z,15.40
2022-09-14T16:50:10.213Z,14.45
2022-09-14T16:52:49.668Z,12.55
2022-09-14T16:55:23.322Z,17.48
2022-09-14T16:58:38.695Z,17.10
2022-09-14T17:01:21.305Z,15.25
2022-09-14T17:03:55.451Z,18.42
2022-09-14T17:06:30.854Z,16.33
2022-09-14T17:09:19.446Z,15.68
2022-09-14T17:11:53.327Z,16.23
2022-09-14T17:14:31.128Z,18.95
2022-09-14T17:17:12.662Z,16.98
2022-09-14T17:20:05.222Z,20.52
2022-09-14T17:22:39.199Z,17.52
2022-09-14T17:25:32.084Z,15.00
2022-09-14T17:28:12.216Z,14.75
2022-09-14T17:33:45.855Z,15.25
2022-09-14T17:36:21.156Z,21.33
2022-09-14T17:39:19.597Z,14.73
2022-09-14T17:41:58.115Z,15.00
2022-09-14T17:44:32.575Z,17.80
2022-09-14T17:47:12.301Z,19.15
2022-09-14T17:49:53.476Z,18.95
2022-09-14T17:52:25.623Z,16.48
2022-09-14T17:55:03.076Z,15.50
2022-09-14T17:57:41.294Z,19.58
2022-09-14T18:00:24.718Z,15.55
2022-09-14T18:03:31.275Z,18.63
2022-09-14T18:06:06.880Z,18.83
2022-09-14T18:08:41.315Z,22.35
2022-09-14T18:11:17.638Z,20.33
2022-09-14T18:13:58.600Z,19.75
2022-09-14T18:16:32.918Z,22.25
2022-09-14T18:19:06.760Z,20.95
2022-09-14T18:21:51.590Z,20.58
2022-09-14T18:24:23.864Z,19.27
2022-09-14T18:26:54.667Z,22.55
2022-09-14T18:29:32.209Z,22.58
2022-09-14T18:32:04.914Z,22.27
2022-09-14T18:34:51.570Z,20.90
2022-09-14T18:40:30.681Z,21.25
2022-09-14T18:43:07.655Z,21.65
2022-09-14T18:48:35.802Z,23.30
2022-09-14T18:51:21.124Z,17.38
2022-09-14T18:54:04.743Z,16.17
2022-09-14T18:56:43.433Z,18.00
2022-09-14T18:59:17.330Z,17.23
2022-09-14T19:01:56.803Z,17.27
2022-09-14T19:04:28.807Z,19.13
2022-09-14T19:06:59.722Z,15.93
2022-09-14T19:09:31.808Z,18.43
2022-09-14T19:12:06.626Z,19.10
2022-09-14T19:14:37.309Z,18.65
2022-09-14T19:17:08.046Z,17.02
2022-09-14T19:19:51.070Z,18.67
2022-09-14T19:22:30.317Z,17.73
2022-09-14T19:25:06.808Z,19.35
2022-09-14T19:27:40.585Z,18.20
2022-09-14T19:30:13.543Z,17.98
2022-09-14T19:32:48.095Z,18.30
2022-09-14T19:35:20.509Z,17.75
2022-09-14T19:37:50.352Z,17.40
2022-09-14T19:40:20.997Z,19.52
2022-09-14T19:42:54.548Z,17.80
2022-09-14T19:45:24.444Z,19.05
2022-09-14T19:47:56.066Z,18.95
2022-09-14T19:50:27.473Z,18.08
2022-09-14T19:52:59.270Z,21.05
2022-09-14T19:55:33.040Z,22.75
2022-09-14T19:58:04.432Z,23.27
2022-09-14T20:00:43.782Z,23.73
2022-09-14T20:03:20.912Z,22.08
2022-09-14T20:06:02.875Z,27.60
2022-09-14T20:08:34.562Z,29.40
2022-09-14T20:11:10.770Z,25.33
2022-09-14T20:13:49.767Z,25.60
2022-09-14T20:16:22.530Z,29.90
2022-09-14T20:18:53.255Z,28.00
2022-09-14T20:21:24.959Z,29.80
2022-09-14T20:24:15.202Z,31.65
2022-09-14T20:26:51.607Z,31.98
2022-09-14T20:29:25.864Z,32.70
2022-09-14T20:31:56.100Z,29.38
2022-09-14T20:34:26.098Z,27.95
2022-09-14T20:36:56.678Z,30.38
2022-09-14T20:39:27.908Z,29.30
2022-09-14T20:41:58.152Z,35.25
2022-09-14T20:44:29.022Z,30.70
2022-09-14T20:46:59.058Z,35.78
2022-09-14T20:49:29.371Z,33.00
2022-09-14T20:52:00.805Z,39.45
2022-09-14T20:57:04.424Z,35.60
2022-09-14T20:59:35.711Z,33.28
2022-09-14T21:02:05.871Z,37.58
2022-09-14T21:04:36.441Z,29.35
2022-09-14T21:07:07.354Z,33.75
2022-09-14T21:09:37.115Z,31.38
2022-09-14T21:12:11.710Z,29.70
2022-09-14T21:14:42.607Z,30.05
2022-09-14T21:17:12.233Z,29.55
2022-09-14T21:19:42.219Z,28.83
2022-09-14T21:22:12.176Z,29.25
2022-09-14T21:24:41.551Z,24.48
2022-09-14T21:27:11.115Z,27.45
2022-09-14T21:29:42.111Z,31.88
2022-09-14T21:32:12.159Z,28.35
2022-09-14T21:34:41.811Z,25.25
2022-09-14T21:37:11.254Z,26.58
2022-09-14T21:39:42.104Z,26.35
2022-09-14T21:42:12.099Z,26.30
2022-09-14T21:44:43.313Z,25.48
2022-09-14T21:47:12.704Z,23.33
2022-09-14T21:49:42.353Z,22.55
2022-09-14T21:52:13.030Z,23.10
2022-09-14T21:54:42.567Z,24.87
2022-09-14T21:57:12.462Z,24.00
2022-09-14T21:59:42.985Z,22.65
2022-09-14T22:02:13.077Z,22.87
2022-09-14T22:04:42.208Z,21.50
2022-09-14T22:07:12.463Z,25.05
2022-09-14T22:09:41.660Z,22.50
2022-09-14T22:12:11.430Z,21.13
2022-09-14T22:14:43.121Z,20.20
2022-09-14T22:17:13.416Z,20.00
2022-09-14T22:19:43.328Z,19.58
2022-09-14T22:22:13.511Z,19.15
2022-09-14T22:24:43.608Z,17.35
2022-09-14T22:27:13.257Z,17.77
2022-09-14T22:29:48.376Z,16.90
2022-09-14T22:32:20.817Z,20.42
2022-09-14T22:34:51.915Z,20.42
2022-09-14T22:37:21.225Z,19.23
2022-09-14T22:39:51.689Z,18.50
2022-09-14T22:42:21.796Z,21.92
2022-09-14T22:44:52.730Z,23.35
2022-09-14T22:49:53.253Z,20.92
2022-09-14T22:52:24.068Z,18.60
2022-09-14T22:54:53.218Z,19.70
2022-09-14T22:57:24.333Z,22.27
2022-09-14T22:59:55.868Z,22.13
2022-09-14T23:02:26.329Z,20.23
2022-09-14T23:04:56.399Z,20.48
2022-09-14T23:07:26.075Z,17.83
2022-09-14T23:09:55.552Z,18.80
2022-09-14T23:12:24.866Z,16.70
2022-09-14T23:14:55.784Z,18.13
2022-09-14T23:17:25.364Z,20.50
2022-09-14T23:19:54.413Z,18.35
2022-09-14T23:22:23.815Z,16.35
2022-09-14T23:24:54.201Z,16.02
2022-09-14T23:27:23.684Z,14.45
2022-09-14T23:29:54.845Z,15.18
2022-09-14T23:32:24.459Z,12.70
2022-09-14T23:34:53.795Z,16.30
2022-09-14T23:37:23.066Z,18.83
2022-09-14T23:39:53.052Z,18.48
2022-09-14T23:42:22.582Z,17.77
2022-09-14T23:44:52.077Z,21.50
2022-09-14T23:47:23.988Z,18.52
2022-09-14T23:49:52.816Z,17.65
2022-09-14T23:52:21.833Z,23.10
2022-09-14T23:54:51.530Z,21.75
2022-09-14T23:57:21.407Z,22.90
2022-09-14T23:59:51.811Z,23.02
